Time;durP1;ratioP1;P1;durP2;ratioP2;P2;SDS_P1;SDS_P2;PMS_P1;PMS_P2;Temp;Humidity;BMP_temperature;BMP_pressure;BME280_temperature;BME280_humidity;BME280_pressure;Samples;Min_cycle;Max_cycle;Signal;HPM_P1;HPM_P2
2021/11/15 00:01:28;;;;;;;21.75;13.02;;;8.20;99.90;;;;;;4956169;28;20042;-92
2021/11/15 00:03:54;;;;;;;23.10;12.40;;;8.20;99.90;;;;;;4955960;28;20035;-93
2021/11/15 00:06:20;;;;;;;22.77;14.30;;;8.20;99.90;;;;;;4951926;29;20094;-91
2021/11/15 00:08:45;;;;;;;16.75;10.32;;;8.20;99.90;;;;;;4967423;28;20103;-91
2021/11/15 00:11:12;;;;;;;21.02;12.85;;;8.20;99.90;;;;;;4955879;28;20581;-92
2021/11/15 00:13:38;;;;;;;19.13;10.43;;;8.20;99.90;;;;;;4967618;28;20056;-93
2021/11/15 00:16:04;;;;;;;23.48;13.52;;;8.20;99.90;;;;;;5007161;28;20034;-93
2021/11/15 00:18:30;;;;;;;23.90;15.15;;;8.20;99.90;;;;;;5003811;28;20095;-91
2021/11/15 00:20:56;;;;;;;24.92;13.90;;;8.20;99.90;;;;;;4987917;28;20031;-92
2021/11/15 00:23:21;;;;;;;24.60;14.23;;;8.10;99.90;;;;;;4988119;28;20026;-93
2021/11/15 00:25:50;;;;;;;20.17;12.05;;;8.10;99.90;;;;;;4987808;28;20070;-94
2021/11/15 00:28:16;;;;;;;24.02;13.90;;;8.20;99.90;;;;;;4987827;28;20034;-94
2021/11/15 00:30:42;;;;;;;20.10;12.73;;;8.10;99.90;;;;;;4987330;28;20062;-93
2021/11/15 00:33:07;;;;;;;21.50;12.68;;;8.10;99.90;;;;;;4987391;28;20113;-91
2021/11/15 00:35:33;;;;;;;20.52;12.82;;;8.10;99.90;;;;;;4971496;28;20065;-92
2021/11/15 00:37:58;;;;;;;26.45;16.00;;;8.10;99.90;;;;;;4987091;28;20039;-92
2021/11/15 00:40:25;;;;;;;23.35;13.50;;;8.10;99.90;;;;;;4955347;28;20065;-92
2021/11/15 00:42:50;;;;;;;25.13;14.63;;;8.10;99.90;;;;;;4987357;28;20066;-93
2021/11/15 00:45:16;;;;;;;23.08;13.50;;;8.10;99.90;;;;;;4987498;28;20035;-91
2021/11/15 00:47:43;;;;;;;26.42;15.35;;;8.10;99.90;;;;;;4987486;28;20038;-94
2021/11/15 00:50:12;;;;;;;20.50;13.93;;;8.10;99.90;;;;;;4955549;28;20043;-94
2021/11/15 00:52:38;;;;;;;19.13;11.98;;;8.00;99.90;;;;;;4987908;28;20041;-96
2021/11/15 00:55:04;;;;;;;21.10;13.18;;;8.10;99.90;;;;;;4987420;28;20110;-93
2021/11/15 00:57:30;;;;;;;20.73;12.98;;;8.10;99.90;;;;;;4970871;28;20041;-94
2021/11/15 00:59:55;;;;;;;19.48;11.80;;;8.10;99.90;;;;;;4987021;28;20030;-93
2021/11/15 01:02:22;;;;;;;22.40;12.43;;;8.10;99.90;;;;;;4986944;28;20090;-91
2021/11/15 01:04:48;;;;;;;21.88;13.23;;;8.10;99.90;;;;;;4986871;28;20140;-94
2021/11/15 01:07:14;;;;;;;24.45;13.73;;;8.00;99.90;;;;;;4987172;28;20031;-91
2021/11/15 01:09:40;;;;;;;28.15;15.80;;;8.10;99.90;;;;;;4987469;28;20116;-93
2021/11/15 01:12:06;;;;;;;20.55;13.73;;;8.00;99.90;;;;;;4970722;28;20026;-92
2021/11/15 01:14:32;;;;;;;23.73;13.63;;;8.00;99.90;;;;;;4987003;28;20443;-92
2021/11/15 01:16:59;;;;;;;22.33;14.50;;;8.00;99.90;;;;;;4954585;28;20031;-93
2021/11/15 01:19:25;;;;;;;21.75;13.27;;;8.00;99.90;;;;;;4986448;28;20049;-93
2021/11/15 01:21:50;;;;;;;22.65;14.23;;;8.00;99.90;;;;;;4970717;28;20078;-91
2021/11/15 01:24:16;;;;;;;22.25;14.10;;;8.00;99.90;;;;;;4954534;28;20041;-93
2021/11/15 01:26:43;;;;;;;22.45;13.00;;;8.00;99.90;;;;;;4954973;28;20030;-94
2021/11/15 01:29:11;;;;;;;22.58;13.95;;;8.00;99.90;;;;;;4970628;28;20138;-92
2021/11/15 01:31:38;;;;;;;23.92;14.65;;;8.00;99.90;;;;;;4954728;28;20042;-91
2021/11/15 01:34:05;;;;;;;21.70;13.70;;;7.90;99.90;;;;;;4986869;28;20045;-93
2021/11/15 01:36:31;;;;;;;22.25;13.52;;;8.00;99.90;;;;;;4970426;28;20055;-93
2021/11/15 01:38:57;;;;;;;21.58;12.98;;;7.90;99.90;;;;;;4961440;28;20181;-93
2021/11/15 01:41:23;;;;;;;28.20;16.65;;;7.90;99.90;;;;;;4954556;28;20097;-92
2021/11/15 01:43:49;;;;;;;24.95;15.95;;;7.90;99.90;;;;;;4954501;28;20034;-93
2021/11/15 01:46:14;;;;;;;29.25;17.40;;;7.90;99.90;;;;;;4970054;28;20057;-93
2021/11/15 01:48:40;;;;;;;24.45;14.10;;;7.90;99.90;;;;;;4994243;23;20050;-91
2021/11/15 01:51:06;;;;;;;29.27;17.25;;;7.80;99.90;;;;;;5009110;28;20121;-91
2021/11/15 01:53:31;;;;;;;28.85;17.40;;;7.90;99.90;;;;;;5005872;28;20034;-92
2021/11/15 01:55:57;;;;;;;25.63;15.65;;;7.80;99.90;;;;;;4989741;28;20105;-93
2021/11/15 01:58:24;;;;;;;27.95;17.25;;;7.80;99.90;;;;;;4973516;28;20046;-92
2021/11/15 02:00:56;;;;;;;28.30;18.27;;;7.80;99.90;;;;;;4989398;28;20117;-92
2021/11/15 02:03:25;;;;;;;26.38;16.88;;;7.80;99.90;;;;;;5005724;28;20061;-93
2021/11/15 02:05:54;;;;;;;25.88;15.32;;;7.80;99.90;;;;;;5009198;28;20116;-92
2021/11/15 02:08:20;;;;;;;28.15;16.50;;;7.80;99.90;;;;;;5008836;28;20080;-92
2021/11/15 02:10:46;;;;;;;28.63;17.27;;;7.80;99.90;;;;;;4992777;28;20030;-92
2021/11/15 02:13:18;;;;;;;25.20;15.18;;;7.80;99.90;;;;;;4992710;28;20029;-91
2021/11/15 02:15:45;;;;;;;26.42;15.90;;;7.70;99.90;;;;;;4992555;28;20037;-92
2021/11/15 02:18:11;;;;;;;22.35;13.25;;;7.80;99.90;;;;;;5018407;28;20067;-92
2021/11/15 02:20:47;;;;;;;28.58;15.98;;;7.80;99.90;;;;;;5046162;28;20085;-92
2021/11/15 02:23:13;;;;;;;24.52;14.40;;;7.70;99.90;;;;;;5028322;28;20029;-92
2021/11/15 02:25:39;;;;;;;23.15;14.35;;;7.70;99.90;;;;;;5028537;28;20025;-92
2021/11/15 02:28:08;;;;;;;29.05;17.15;;;7.70;99.90;;;;;;5028168;28;20026;-93
2021/11/15 02:30:34;;;;;;;27.60;16.70;;;7.70;99.90;;;;;;5013470;28;20060;-93
2021/11/15 02:33:01;;;;;;;26.27;15.98;;;7.80;99.90;;;;;;5015884;28;20100;-92
2021/11/15 02:35:27;;;;;;;24.05;15.25;;;7.70;99.90;;;;;;5032173;28;20116;-92
2021/11/15 02:37:53;;;;;;;28.83;16.33;;;7.70;99.90;;;;;;5032096;28;20057;-92
2021/11/15 02:40:25;;;;;;;26.33;15.80;;;7.70;99.90;;;;;;5049888;28;20034;-92
2021/11/15 02:42:51;;;;;;;26.85;15.50;;;7.70;99.90;;;;;;5031991;28;20124;-90
2021/11/15 02:45:18;;;;;;;28.08;16.50;;;7.70;99.90;;;;;;5032966;28;20029;-95
2021/11/15 02:47:45;;;;;;;25.85;15.38;;;7.70;99.90;;;;;;5028302;28;20060;-93
2021/11/15 02:50:19;;;;;;;33.53;18.80;;;7.70;99.90;;;;;;5028477;28;20058;-91
2021/11/15 02:52:46;;;;;;;31.63;17.63;;;7.60;99.90;;;;;;5028556;28;20072;-92
2021/11/15 02:55:13;;;;;;;29.77;17.70;;;7.60;99.90;;;;;;5028791;28;20121;-90
2021/11/15 02:57:38;;;;;;;31.05;18.77;;;7.60;99.90;;;;;;5012209;28;20037;-91
2021/11/15 03:00:06;;;;;;;35.08;20.02;;;7.60;99.90;;;;;;5028690;28;20047;-92
2021/11/15 03:02:32;;;;;;;35.60;21.52;;;7.60;99.90;;;;;;5028210;28;20466;-90
2021/11/15 03:04:57;;;;;;;35.30;20.30;;;7.60;99.90;;;;;;5027522;28;20053;-92
2021/11/15 03:07:23;;;;;;;34.97;19.80;;;7.60;99.90;;;;;;4995429;28;20080;-91
2021/11/15 03:09:49;;;;;;;36.53;20.40;;;7.60;99.90;;;;;;4995738;28;20030;-91
2021/11/15 03:12:14;;;;;;;34.47;20.20;;;7.60;99.90;;;;;;5011823;28;20049;-91
2021/11/15 03:14:40;;;;;;;34.80;20.13;;;7.60;99.90;;;;;;5011632;28;20033;-91
2021/11/15 03:17:05;;;;;;;34.42;19.45;;;7.60;99.90;;;;;;5011497;28;20026;-92
2021/11/15 03:19:31;;;;;;;30.90;19.27;;;7.50;99.90;;;;;;5028312;28;20045;-93
2021/11/15 03:21:57;;;;;;;28.92;17.55;;;7.50;99.90;;;;;;5028207;28;20053;-91
2021/11/15 03:24:23;;;;;;;28.70;16.63;;;7.50;99.90;;;;;;5028029;28;20521;-92
2021/11/15 03:26:48;;;;;;;31.55;18.17;;;7.50;99.90;;;;;;5028214;28;20032;-92
2021/11/15 03:29:14;;;;;;;29.92;17.25;;;7.50;99.90;;;;;;5027809;28;20040;-91
2021/11/15 03:31:40;;;;;;;29.67;17.23;;;7.50;99.90;;;;;;5011468;28;20026;-92
2021/11/15 03:34:09;;;;;;;31.58;17.67;;;7.50;99.90;;;;;;5024766;28;20097;-93
2021/11/15 03:36:38;;;;;;;28.52;16.17;;;7.50;99.90;;;;;;5011614;28;20064;-93
2021/11/15 03:39:06;;;;;;;30.35;17.05;;;7.50;99.90;;;;;;4994730;28;20045;-92
2021/11/15 03:41:36;;;;;;;32.15;19.05;;;7.50;99.90;;;;;;4994416;28;20489;-92
2021/11/15 03:44:03;;;;;;;30.15;17.73;;;7.50;99.90;;;;;;4994714;28;20544;-93
2021/11/15 03:46:29;;;;;;;31.20;17.40;;;7.50;99.90;;;;;;4994869;28;20058;-94
2021/11/15 03:48:54;;;;;;;27.63;16.48;;;7.50;99.90;;;;;;4994304;28;20403;-93
2021/11/15 03:51:21;;;;;;;29.95;16.75;;;7.50;99.90;;;;;;5028101;28;20033;-92
2021/11/15 03:53:47;;;;;;;29.67;17.55;;;7.50;99.90;;;;;;5027843;28;20034;-94
2021/11/15 03:56:17;;;;;;;25.73;14.65;;;7.50;99.90;;;;;;4995432;28;20474;-93
2021/11/15 03:58:46;;;;;;;29.23;17.58;;;7.50;99.90;;;;;;4995111;28;20053;-92
2021/11/15 04:01:13;;;;;;;30.55;17.30;;;7.50;99.90;;;;;;5011517;28;20022;-94
2021/11/15 04:03:41;;;;;;;33.15;19.42;;;7.40;99.90;;;;;;4994711;28;20033;-93
2021/11/15 04:06:12;;;;;;;32.80;19.48;;;7.50;99.90;;;;;;5011201;28;20037;-92
2021/11/15 04:08:41;;;;;;;34.33;19.48;;;7.50;99.90;;;;;;5011273;28;20129;-91
2021/11/15 04:11:09;;;;;;;36.83;21.50;;;7.50;99.90;;;;;;4994849;28;20034;-90
2021/11/15 04:13:39;;;;;;;35.42;20.88;;;7.50;99.90;;;;;;4994731;28;20033;-91
2021/11/15 04:16:09;;;;;;;32.95;18.85;;;7.50;99.90;;;;;;4994739;28;20034;-91
2021/11/15 04:18:39;;;;;;;33.78;20.05;;;7.50;99.90;;;;;;4994713;28;20042;-93
2021/11/15 04:21:06;;;;;;;;;;;7.50;99.90;;;;;;5011536;28;20037;-92
2021/11/15 04:23:32;;;;;;;26.55;14.85;;;7.50;99.90;;;;;;5010714;28;19940;-93
2021/11/15 04:25:57;;;;;;;28.67;18.88;;;7.50;99.90;;;;;;5010567;28;20032;-93
2021/11/15 04:28:25;;;;;;;28.02;16.80;;;7.50;99.90;;;;;;5010534;28;20482;-94
2021/11/15 04:30:51;;;;;;;30.13;18.00;;;7.50;99.90;;;;;;5010644;28;20041;-90
2021/11/15 04:33:17;;;;;;;31.10;17.77;;;7.40;99.90;;;;;;5008962;28;20030;-91
2021/11/15 04:35:43;;;;;;;30.33;17.75;;;7.40;99.90;;;;;;4993551;28;20043;-92
2021/11/15 04:38:09;;;;;;;28.33;17.10;;;7.40;99.90;;;;;;5010073;28;20046;-92
2021/11/15 04:40:36;;;;;;;24.38;14.85;;;7.40;99.90;;;;;;4993975;28;20042;-93
2021/11/15 04:43:02;;;;;;;25.00;15.60;;;7.40;99.90;;;;;;4993908;28;20030;-93
2021/11/15 04:45:28;;;;;;;25.58;16.25;;;7.50;99.90;;;;;;4993721;28;20038;-93
2021/11/15 04:47:56;;;;;;;24.42;14.75;;;7.40;99.90;;;;;;5010249;28;20046;-92
2021/11/15 04:50:22;;;;;;;23.70;15.73;;;7.40;99.90;;;;;;5009978;28;20034;-88
2021/11/15 04:52:49;;;;;;;31.45;17.67;;;7.50;99.90;;;;;;5008957;28;20030;-90
2021/11/15 04:55:18;;;;;;;28.60;16.90;;;7.40;99.90;;;;;;4993445;28;20045;-89
2021/11/15 04:57:44;;;;;;;27.63;17.50;;;7.40;99.90;;;;;;5009830;28;20037;-90
2021/11/15 05:00:14;;;;;;;26.92;18.05;;;7.40;99.90;;;;;;5009692;28;20137;-90
2021/11/15 05:02:40;;;;;;;26.27;16.23;;;7.40;99.90;;;;;;4993048;28;20084;-90
2021/11/15 05:05:06;;;;;;;26.23;16.35;;;7.40;99.90;;;;;;5014673;28;20037;-89
2021/11/15 05:07:32;;;;;;;26.42;15.23;;;7.40;99.90;;;;;;5028913;28;20041;-93
2021/11/15 05:09:57;;;;;;;26.15;15.55;;;7.40;99.90;;;;;;5029075;28;20029;-92
2021/11/15 05:12:23;;;;;;;23.42;14.07;;;7.40;99.90;;;;;;5029249;28;20034;-92
2021/11/15 05:14:49;;;;;;;25.15;15.57;;;7.40;99.90;;;;;;5028728;28;20037;-92
2021/11/15 05:17:14;;;;;;;22.35;14.18;;;7.40;99.90;;;;;;5026888;28;20044;-92
2021/11/15 05:19:40;;;;;;;22.88;13.63;;;7.40;99.90;;;;;;5006328;28;20106;-93
2021/11/15 05:22:06;;;;;;;23.05;14.57;;;7.40;99.90;;;;;;5008783;28;20117;-92
2021/11/15 05:24:31;;;;;;;23.80;13.55;;;7.40;99.90;;;;;;4992917;28;20033;-93
2021/11/15 05:26:57;;;;;;;22.83;13.98;;;7.40;99.90;;;;;;5008913;28;20038;-92
2021/11/15 05:29:23;;;;;;;23.95;13.05;;;7.40;99.90;;;;;;4992155;28;20045;-93
2021/11/15 05:31:49;;;;;;;24.77;14.85;;;7.40;99.90;;;;;;5009015;28;20037;-92
2021/11/15 05:34:14;;;;;;;25.30;14.77;;;7.30;99.90;;;;;;4992201;28;20049;-93
2021/11/15 05:36:40;;;;;;;22.25;13.10;;;7.30;99.90;;;;;;4992476;28;20034;-93
2021/11/15 05:39:06;;;;;;;23.95;13.98;;;7.30;99.90;;;;;;5008727;28;20116;-92
2021/11/15 05:41:32;;;;;;;25.17;14.05;;;7.40;99.90;;;;;;5008664;28;20098;-92
2021/11/15 05:43:58;;;;;;;24.15;14.85;;;7.40;99.90;;;;;;5008819;28;20065;-93
2021/11/15 05:46:23;;;;;;;27.02;14.43;;;7.30;99.90;;;;;;5019927;28;20034;-91
2021/11/15 05:48:49;;;;;;;23.75;13.82;;;7.30;99.90;;;;;;5011902;28;20057;-91
2021/11/15 05:51:15;;;;;;;23.90;12.93;;;7.30;99.90;;;;;;5028112;28;20116;-91
2021/11/15 05:53:46;;;;;;;24.98;13.27;;;7.30;99.90;;;;;;5011890;28;20033;-92
2021/11/15 05:56:12;;;;;;;24.08;14.05;;;7.30;99.90;;;;;;5028476;28;20041;-91
2021/11/15 05:58:37;;;;;;;24.85;13.68;;;7.30;99.90;;;;;;5011966;28;20041;-91
2021/11/15 06:01:03;;;;;;;23.20;13.63;;;7.30;99.90;;;;;;5009766;28;20029;-91
2021/11/15 06:03:29;;;;;;;21.83;12.20;;;7.30;99.90;;;;;;5008673;28;20036;-91
2021/11/15 06:05:55;;;;;;;21.90;12.13;;;7.30;99.90;;;;;;5008717;28;20474;-91
2021/11/15 06:08:21;;;;;;;18.88;10.48;;;7.30;99.90;;;;;;5008546;28;20034;-91
2021/11/15 06:10:46;;;;;;;21.92;11.43;;;7.30;99.90;;;;;;4992433;28;20084;-91
2021/11/15 06:13:12;;;;;;;24.63;13.27;;;7.20;99.90;;;;;;5008731;28;20073;-91
2021/11/15 06:15:38;;;;;;;24.10;11.75;;;7.20;99.90;;;;;;4992202;28;20030;-94
2021/11/15 06:18:04;;;;;;;24.52;13.35;;;7.30;99.90;;;;;;5013710;28;20061;-91
2021/11/15 06:20:29;;;;;;;23.55;13.07;;;7.20;99.90;;;;;;5024631;28;20040;-92
2021/11/15 06:22:55;;;;;;;26.17;13.25;;;7.20;99.90;;;;;;5008253;28;20030;-92
2021/11/15 06:25:21;;;;;;;24.23;12.60;;;7.20;99.90;;;;;;5008533;28;20025;-91
2021/11/15 06:27:47;;;;;;;26.35;13.55;;;7.20;99.90;;;;;;5001749;28;20426;-92
2021/11/15 06:30:15;;;;;;;26.65;13.82;;;7.20;99.90;;;;;;5008402;28;20041;-93
2021/11/15 06:32:42;;;;;;;29.23;14.70;;;7.20;99.90;;;;;;5024591;28;20022;-93
2021/11/15 06:35:09;;;;;;;25.20;13.65;;;7.20;99.90;;;;;;5008395;28;20030;-92
2021/11/15 06:37:35;;;;;;;22.00;12.82;;;7.20;99.90;;;;;;4991890;28;20042;-92
2021/11/15 06:40:02;;;;;;;23.80;13.18;;;7.20;99.90;;;;;;5008796;28;20069;-95
2021/11/15 06:42:28;;;;;;;29.33;15.18;;;7.20;99.90;;;;;;5008554;28;20034;-91
2021/11/15 06:44:56;;;;;;;27.52;14.38;;;7.20;99.90;;;;;;4992084;28;20056;-94
2021/11/15 06:47:22;;;;;;;27.50;14.05;;;7.20;99.90;;;;;;5003117;28;20037;-92
2021/11/15 06:49:52;;;;;;;23.60;12.27;;;7.20;99.90;;;;;;5027779;28;20034;-92
2021/11/15 06:52:22;;;;;;;23.65;13.20;;;7.20;99.90;;;;;;5011566;28;20030;-92
2021/11/15 06:54:48;;;;;;;27.23;14.02;;;7.20;99.90;;;;;;5011329;28;20128;-92
2021/11/15 06:57:14;;;;;;;20.65;11.27;;;7.20;99.90;;;;;;5005839;28;20033;-92
2021/11/15 06:59:41;;;;;;;23.20;12.30;;;7.20;99.90;;;;;;5007978;28;20121;-92
2021/11/15 07:02:07;;;;;;;22.38;12.15;;;7.20;99.90;;;;;;5007501;28;20026;-90
2021/11/15 07:04:33;;;;;;;22.88;12.07;;;7.20;99.90;;;;;;5007812;28;20026;-90
2021/11/15 07:06:58;;;;;;;19.80;11.85;;;7.20;99.90;;;;;;5007506;28;20458;-91
2021/11/15 07:09:24;;;;;;;21.02;10.80;;;7.20;99.90;;;;;;5008003;28;20049;-91
2021/11/15 07:11:50;;;;;;;23.52;13.20;;;7.20;99.90;;;;;;5007871;28;20041;-88
2021/11/15 07:14:16;;;;;;;23.58;12.18;;;7.20;99.90;;;;;;5007712;28;20044;-91
2021/11/15 07:16:41;;;;;;;21.83;11.45;;;7.20;99.90;;;;;;5008659;28;20037;-91
2021/11/15 07:19:07;;;;;;;23.65;13.32;;;7.20;99.90;;;;;;5011441;28;20506;-91
2021/11/15 07:21:33;;;;;;;24.30;12.25;;;7.10;99.90;;;;;;4995303;28;20083;-91
2021/11/15 07:23:59;;;;;;;21.67;11.80;;;7.20;99.90;;;;;;4995199;28;20034;-91
2021/11/15 07:26:25;;;;;;;21.30;11.75;;;7.20;99.90;;;;;;4994821;28;20402;-90
2021/11/15 07:28:52;;;;;;;19.73;11.38;;;7.20;99.90;;;;;;5011504;28;20045;-91
2021/11/15 07:31:17;;;;;;;21.45;10.50;;;7.10;99.90;;;;;;4994771;28;20038;-90
2021/11/15 07:33:44;;;;;;;21.63;12.02;;;7.10;99.90;;;;;;5010963;28;20088;-90
2021/11/15 07:36:10;;;;;;;24.20;12.60;;;7.20;99.90;;;;;;4995048;28;20030;-91
2021/11/15 07:38:35;;;;;;;23.88;12.15;;;7.10;99.90;;;;;;5011066;28;20042;-91
2021/11/15 07:41:01;;;;;;;21.73;11.02;;;7.10;99.90;;;;;;5011204;28;20034;-91
2021/11/15 07:43:27;;;;;;;20.08;10.32;;;7.20;99.90;;;;;;4994608;28;20037;-91
2021/11/15 07:46:13;;;;;;;18.90;10.45;;;7.20;99.90;;;;;;5010573;28;20120;-90
2021/11/15 07:48:38;;;;;;;21.10;10.00;;;7.20;99.90;;;;;;4935424;29;20058;-91
2021/11/15 07:51:04;;;;;;;19.77;9.98;;;7.20;99.90;;;;;;4951227;29;20075;-90
2021/11/15 07:53:31;;;;;;;16.73;8.88;;;7.10;99.90;;;;;;4967524;28;20043;-91
2021/11/15 07:55:57;;;;;;;21.52;10.27;;;7.10;99.90;;;;;;4967724;28;20035;-91
2021/11/15 07:58:22;;;;;;;19.30;9.77;;;7.10;99.90;;;;;;4967502;28;20054;-92
2021/11/15 08:00:49;;;;;;;22.92;10.98;;;7.00;99.90;;;;;;4967132;29;20126;-91
2021/11/15 08:03:15;;;;;;;23.63;10.55;;;7.00;99.90;;;;;;4967166;28;20028;-91
2021/11/15 08:05:40;;;;;;;20.77;9.90;;;7.00;99.90;;;;;;4977206;28;20552;-91
2021/11/15 08:08:06;;;;;;;20.90;10.30;;;7.00;99.90;;;;;;4970271;28;20037;-90
2021/11/15 08:10:32;;;;;;;19.38;8.77;;;7.00;99.90;;;;;;4970514;28;20514;-91
2021/11/15 08:12:58;;;;;;;18.73;8.90;;;7.10;99.90;;;;;;4969897;28;20150;-91
2021/11/15 08:15:25;;;;;;;20.08;8.57;;;7.00;99.90;;;;;;4970053;28;20058;-91
2021/11/15 08:17:54;;;;;;;15.63;7.07;;;7.00;99.90;;;;;;4969522;28;20031;-90
2021/11/15 08:20:32;;;;;;;17.83;7.57;;;7.00;99.90;;;;;;4951893;29;20054;-90
2021/11/15 08:23:05;;;;;;;13.65;6.07;;;7.00;99.90;;;;;;4966378;29;20412;-91
2021/11/15 08:26:19;;;;;;;18.85;9.05;;;7.00;99.90;;;;;;4978738;28;20049;-91
2021/11/15 08:28:45;;;;;;;21.25;11.27;;;7.00;99.90;;;;;;5006600;28;20120;-91
2021/11/15 08:31:12;;;;;;;24.33;9.88;;;6.90;99.90;;;;;;4990152;28;20085;-89
2021/11/15 08:33:38;;;;;;;21.35;10.13;;;6.90;99.90;;;;;;4989863;28;20034;-90
2021/11/15 08:36:05;;;;;;;21.75;9.05;;;6.90;99.90;;;;;;4990112;28;20486;-91
2021/11/15 08:38:49;;;;;;;18.15;9.63;;;6.90;99.90;;;;;;4990000;28;20046;-90
2021/11/15 08:41:22;;;;;;;19.25;9.10;;;6.90;99.90;;;;;;4974079;28;20045;-90
2021/11/15 08:43:48;;;;;;;24.92;12.50;;;6.80;99.90;;;;;;4989994;28;20045;-90
2021/11/15 08:46:15;;;;;;;20.80;11.10;;;6.80;99.90;;;;;;4989738;28;20041;-91
2021/11/15 08:48:43;;;;;;;21.77;9.43;;;6.80;99.90;;;;;;5042720;23;20474;-90
2021/11/15 08:51:13;;;;;;;26.55;11.05;;;6.90;99.90;;;;;;5009458;28;20067;-90
2021/11/15 08:53:41;;;;;;;21.75;9.55;;;6.80;99.90;;;;;;5009288;28;20026;-91
2021/11/15 08:56:07;;;;;;;25.30;13.18;;;6.80;99.90;;;;;;4993372;28;20034;-90
2021/11/15 08:58:33;;;;;;;23.13;11.23;;;6.70;99.90;;;;;;4993374;28;20042;-89
2021/11/15 09:00:59;;;;;;;23.63;10.13;;;6.80;99.90;;;;;;4992764;28;20037;-91
2021/11/15 09:03:24;;;;;;;23.00;10.50;;;6.80;99.90;;;;;;5009437;28;20394;-91
2021/11/15 09:05:52;;;;;;;16.73;8.25;;;6.80;99.90;;;;;;5028154;28;20036;-89
2021/11/15 09:08:18;;;;;;;19.98;10.05;;;6.80;99.90;;;;;;5028922;28;20124;-90
2021/11/15 09:10:47;;;;;;;18.45;8.55;;;6.80;99.90;;;;;;5028758;28;20040;-89
2021/11/15 09:13:13;;;;;;;19.30;7.95;;;6.80;99.90;;;;;;5028711;28;20033;-90
2021/11/15 09:15:39;;;;;;;18.98;9.02;;;6.90;99.90;;;;;;5028795;28;20029;-90
2021/11/15 09:18:05;;;;;;;19.00;9.57;;;6.80;99.90;;;;;;5019748;28;20080;-89
2021/11/15 09:20:31;;;;;;;20.13;9.25;;;6.80;99.90;;;;;;4992556;28;20097;-88
2021/11/15 09:22:56;;;;;;;21.08;8.55;;;6.90;99.90;;;;;;5008700;28;20041;-90
2021/11/15 09:25:22;;;;;;;22.02;9.80;;;6.80;99.90;;;;;;5026358;28;20088;-90
2021/11/15 09:27:48;;;;;;;20.35;9.52;;;6.80;99.90;;;;;;4992618;28;20065;-91
2021/11/15 09:30:15;;;;;;;16.45;7.70;;;6.80;99.90;;;;;;5008711;28;20083;-92
2021/11/15 09:32:42;;;;;;;26.75;11.20;;;6.80;99.90;;;;;;4992869;28;20037;-90
2021/11/15 09:35:09;;;;;;;24.25;10.77;;;6.80;99.90;;;;;;4992105;28;20095;-91
2021/11/15 09:37:34;;;;;;;20.75;8.80;;;6.70;99.90;;;;;;5008559;28;20033;-89
2021/11/15 09:40:01;;;;;;;26.63;10.27;;;6.80;99.90;;;;;;5008331;28;20042;-90
2021/11/15 09:42:26;;;;;;;23.48;9.88;;;6.70;99.90;;;;;;5008294;28;20057;-89
2021/11/15 09:44:52;;;;;;;25.38;11.95;;;6.70;99.90;;;;;;5008384;28;20029;-89
2021/11/15 09:47:19;;;;;;;22.42;9.77;;;6.70;99.90;;;;;;5008237;28;20049;-91
2021/11/15 09:49:45;;;;;;;27.02;12.40;;;6.70;99.90;;;;;;4992060;28;20034;-87
2021/11/15 09:52:11;;;;;;;28.40;13.07;;;6.70;99.90;;;;;;5008308;28;20057;-91
2021/11/15 09:54:40;;;;;;;22.52;10.13;;;6.70;99.90;;;;;;4991977;28;20528;-90
2021/11/15 09:57:08;;;;;;;24.48;11.05;;;6.70;99.90;;;;;;5008199;28;20121;-90
2021/11/15 09:59:33;;;;;;;26.23;12.15;;;6.70;99.90;;;;;;5008074;28;20065;-89
2021/11/15 10:01:59;;;;;;;26.38;11.45;;;6.70;99.90;;;;;;5008116;28;20030;-90
2021/11/15 10:04:25;;;;;;;26.83;10.35;;;6.70;99.90;;;;;;5007890;28;20044;-89
2021/11/15 10:06:56;;;;;;;20.55;9.25;;;6.70;99.90;;;;;;5043858;28;20029;-89
2021/11/15 10:09:35;;;;;;;22.30;9.43;;;6.70;99.90;;;;;;5027620;28;20033;-90
2021/11/15 10:12:13;;;;;;;25.00;10.52;;;6.70;99.90;;;;;;5027586;28;20056;-91
2021/11/15 10:14:58;;;;;;;23.60;9.90;;;6.60;99.90;;;;;;5044083;28;20034;-90
2021/11/15 10:17:39;;;;;;;25.67;9.95;;;6.60;99.90;;;;;;5027426;28;20052;-89
2021/11/15 10:20:05;;;;;;;20.90;8.90;;;6.60;99.90;;;;;;5010977;28;20045;-91
2021/11/15 10:22:30;;;;;;;20.60;9.32;;;6.60;99.90;;;;;;5045222;28;20021;-90
2021/11/15 10:24:56;;;;;;;18.42;9.38;;;6.70;99.90;;;;;;5011130;28;20102;-89
2021/11/15 10:27:27;;;;;;;19.73;9.10;;;6.70;99.90;;;;;;5011321;28;20075;-91
2021/11/15 10:29:52;;;;;;;19.55;8.88;;;6.70;99.90;;;;;;5011182;28;20044;-90
2021/11/15 10:32:29;;;;;;;20.40;9.52;;;6.60;99.90;;;;;;5011060;28;20033;-87
2021/11/15 10:34:58;;;;;;;21.35;10.60;;;6.60;99.90;;;;;;5011147;28;20033;-90
2021/11/15 10:37:27;;;;;;;25.17;10.07;;;6.60;99.90;;;;;;5010958;28;20052;-90
2021/11/15 10:40:07;;;;;;;23.35;10.32;;;6.60;99.90;;;;;;5011011;28;20452;-89
2021/11/15 10:42:40;;;;;;;17.95;9.10;;;6.60;99.90;;;;;;5027221;28;20033;-87
2021/11/15 10:45:13;;;;;;;20.40;8.90;;;6.60;99.90;;;;;;5010825;28;20497;-90
2021/11/15 10:47:40;;;;;;;22.48;9.77;;;6.60;99.90;;;;;;5007358;28;20038;-90
2021/11/15 10:50:43;;;;;;;17.77;7.93;;;6.60;99.90;;;;;;5024037;28;20061;-90
2021/11/15 10:53:18;;;;;;;16.63;8.40;;;6.60;99.90;;;;;;5043309;28;20045;-89
2021/11/15 10:56:13;;;;;;;15.60;6.80;;;6.50;99.90;;;;;;5028139;28;20079;-89
2021/11/15 10:58:47;;;;;;;16.42;7.78;;;6.60;99.90;;;;;;5011442;28;20038;-89
2021/11/15 11:01:13;;;;;;;19.65;8.82;;;6.60;99.90;;;;;;5011265;28;20030;-89
2021/11/15 11:03:40;;;;;;;18.52;7.95;;;6.60;99.90;;;;;;5011422;28;20033;-89
2021/11/15 11:06:11;;;;;;;19.05;8.23;;;6.60;99.90;;;;;;5014335;28;20041;-89
2021/11/15 11:08:44;;;;;;;12.85;6.28;;;6.60;99.90;;;;;;5014644;28;20133;-90
2021/11/15 11:11:12;;;;;;;17.23;7.07;;;6.60;99.90;;;;;;5014296;28;20494;-89
2021/11/15 11:13:56;;;;;;;16.73;8.18;;;6.60;99.90;;;;;;5014485;28;20033;-89
2021/11/15 11:16:43;;;;;;;22.67;9.75;;;6.70;99.90;;;;;;5014398;28;20079;-90
2021/11/15 11:19:18;;;;;;;18.08;7.97;;;6.60;99.90;;;;;;5007947;28;20074;-90
2021/11/15 11:27:27;;;;;;;15.70;7.30;;;6.70;99.90;;;;;;5024024;28;20061;-89
2021/11/15 11:29:56;;;;;;;17.85;7.63;;;6.60;99.90;;;;;;5007637;28;20440;-90
2021/11/15 11:32:30;;;;;;;17.67;7.93;;;6.60;99.90;;;;;;5007226;28;20497;-89
2021/11/15 11:34:59;;;;;;;15.63;7.07;;;6.60;99.90;;;;;;5023943;28;20173;-90
2021/11/15 11:37:27;;;;;;;13.45;7.55;;;6.60;99.90;;;;;;5011585;28;20022;-89
2021/11/15 11:39:54;;;;;;;13.93;6.40;;;6.70;99.90;;;;;;5011319;28;20072;-90
2021/11/15 11:42:21;;;;;;;14.68;6.85;;;6.60;99.90;;;;;;5010678;28;20486;-89
2021/11/15 11:44:48;;;;;;;15.73;7.53;;;6.70;99.90;;;;;;5010588;28;20037;-89
2021/11/15 11:47:16;;;;;;;14.73;6.50;;;6.60;99.90;;;;;;5012477;28;20153;-89
2021/11/15 11:49:46;;;;;;;15.35;7.82;;;6.70;99.90;;;;;;5013449;28;20029;-90
2021/11/15 11:52:14;;;;;;;17.83;7.80;;;6.60;99.90;;;;;;5013221;28;20029;-89
2021/11/15 11:54:47;;;;;;;21.67;8.23;;;6.60;99.90;;;;;;5013687;28;20033;-89
2021/11/15 11:57:15;;;;;;;19.10;8.48;;;6.60;99.90;;;;;;5013356;28;20037;-89
2021/11/15 11:59:44;;;;;;;20.85;8.98;;;6.50;99.90;;;;;;5013642;28;20088;-90
2021/11/15 12:02:13;;;;;;;20.98;9.25;;;6.50;99.90;;;;;;5013257;28;20056;-89
2021/11/15 12:04:46;;;;;;;22.30;8.85;;;6.50;99.90;;;;;;5013142;28;20512;-89
2021/11/15 12:07:56;;;;;;;19.45;8.25;;;6.50;99.90;;;;;;5029749;28;20098;-89
2021/11/15 12:10:41;;;;;;;18.27;7.90;;;6.50;99.90;;;;;;5015495;28;20037;-89
2021/11/15 12:13:09;;;;;;;17.35;8.02;;;6.50;99.90;;;;;;5045871;28;20034;-89
2021/11/15 12:15:56;;;;;;;23.38;11.02;;;6.50;99.90;;;;;;5046195;28;20038;-89
2021/11/15 12:18:32;;;;;;;20.55;8.98;;;6.50;99.90;;;;;;5021490;28;20124;-89
2021/11/15 12:21:03;;;;;;;23.23;10.57;;;6.50;99.90;;;;;;5012941;28;20199;-89
2021/11/15 12:23:44;;;;;;;22.08;9.50;;;6.50;99.90;;;;;;5012633;28;20053;-89
2021/11/15 12:26:15;;;;;;;25.98;12.30;;;6.50;99.90;;;;;;5029081;28;20040;-89
2021/11/15 12:28:49;;;;;;;22.48;10.48;;;6.50;99.90;;;;;;5013060;28;20029;-88
2021/11/15 12:31:36;;;;;;;23.92;10.65;;;6.50;99.90;;;;;;5012945;28;20116;-89
2021/11/15 12:34:06;;;;;;;23.88;10.98;;;6.50;99.90;;;;;;5012144;28;20034;-89
2021/11/15 12:36:41;;;;;;;29.60;12.73;;;6.50;99.90;;;;;;5012554;28;20229;-89
2021/11/15 12:39:18;;;;;;;23.60;10.95;;;6.50;99.90;;;;;;5012747;28;20053;-88
2021/11/15 12:41:48;;;;;;;26.02;12.18;;;6.60;99.90;;;;;;5012546;28;20030;-88
2021/11/15 12:44:29;;;;;;;26.85;11.27;;;6.50;99.90;;;;;;5012677;28;20056;-89
2021/11/15 12:47:00;;;;;;;26.13;12.30;;;6.60;99.90;;;;;;5028427;28;20037;-90
2021/11/15 12:49:49;;;;;;;28.08;13.88;;;6.50;99.90;;;;;;5012534;28;20145;-89
2021/11/15 12:52:16;;;;;;;29.65;13.18;;;6.50;99.90;;;;;;5012310;28;20049;-89